Time;durP1;ratioP1;P1;durP2;ratioP2;P2;SDS_P1;SDS_P2;PMS_P1;PMS_P2;Temp;Humidity;BMP_temperature;BMP_pressure;BME280_temperature;BME280_humidity;BME280_pressure;Samples;Min_cycle;Max_cycle;Signal;HPM_P1;HPM_P2
2022/06/13 00:01:16;;;;;;;13.43;2.88;;;;;;;17.59;46.90;100218.59;4991106;28;20042;-55
2022/06/13 00:03:43;;;;;;;7.43;2.30;;;;;;;17.60;46.36;100219.47;4974305;28;20100;-57
2022/06/13 00:06:09;;;;;;;11.65;2.70;;;;;;;17.56;46.71;100222.34;4991265;28;20054;-57
2022/06/13 00:08:36;;;;;;;7.80;2.67;;;;;;;17.56;46.63;100219.69;4991442;28;20050;-56
2022/06/13 00:11:07;;;;;;;11.75;3.13;;;;;;;17.51;46.89;100216.56;4991207;28;20074;-57
2022/06/13 00:13:33;;;;;;;11.80;3.03;;;;;;;17.52;46.59;100206.75;4991567;28;20066;-58
2022/06/13 00:16:00;;;;;;;12.98;2.70;;;;;;;17.49;46.90;100205.16;4991129;28;20050;-57
2022/06/13 00:18:26;;;;;;;10.30;3.45;;;;;;;17.47;46.64;100211.59;4990923;28;20050;-58
2022/06/13 00:20:54;;;;;;;11.13;2.97;;;;;;;17.44;47.28;100215.34;4991114;28;20081;-57
2022/06/13 00:23:22;;;;;;;5.63;2.40;;;;;;;17.43;46.96;100203.84;4973845;28;20058;-59
2022/06/13 00:25:48;;;;;;;5.82;2.40;;;;;;;17.41;47.13;100210.25;4991399;28;20050;-59
2022/06/13 00:28:16;;;;;;;9.75;2.60;;;;;;;17.37;47.20;100209.66;4993767;28;20509;-57
2022/06/13 00:30:43;;;;;;;20.17;3.55;;;;;;;17.35;47.10;100206.28;4995359;28;20050;-57
2022/06/13 00:33:09;;;;;;;5.50;1.95;;;;;;;17.31;46.88;100205.66;4995078;28;20050;-56
2022/06/13 00:35:36;;;;;;;6.03;2.60;;;;;;;17.29;47.38;100206.75;4994765;28;20092;-59
2022/06/13 00:38:02;;;;;;;9.52;2.95;;;;;;;17.25;47.53;100214.13;4995111;28;20046;-58
2022/06/13 00:40:33;;;;;;;6.43;2.22;;;;;;;17.20;48.06;100197.69;4994968;28;20073;-59
2022/06/13 00:43:01;;;;;;;8.15;2.50;;;;;;;17.21;47.39;100201.19;4994802;28;20042;-59
2022/06/13 00:45:36;;;;;;;5.47;2.28;;;;;;;17.14;48.06;100204.31;4995186;28;20054;-57
2022/06/13 00:48:03;;;;;;;7.68;2.40;;;;;;;17.15;47.62;100197.19;4977336;28;20050;-57
2022/06/13 00:50:35;;;;;;;6.75;2.85;;;;;;;17.11;47.85;100193.91;4994775;28;20047;-55
2022/06/13 00:53:10;;;;;;;7.88;2.53;;;;;;;17.08;48.46;100195.97;4977566;28;20054;-58
2022/06/13 00:55:51;;;;;;;10.43;3.20;;;;;;;17.05;48.35;100192.56;4994738;28;20046;-60
2022/06/13 00:58:18;;;;;;;6.00;2.63;;;;;;;17.06;48.01;100178.34;4994377;28;20046;-59
2022/06/13 01:00:48;;;;;;;8.15;2.72;;;;;;;17.06;48.23;100175.69;4994688;28;20050;-59
2022/06/13 01:03:15;;;;;;;4.97;2.55;;;;;;;17.06;48.12;100186.31;4994724;28;20046;-55
2022/06/13 01:05:47;;;;;;;8.30;2.85;;;;;;;17.05;48.67;100189.91;4994613;28;20137;-59
2022/06/13 01:08:15;;;;;;;10.20;3.33;;;;;;;17.04;48.28;100182.91;4994297;28;20101;-57
2022/06/13 01:13:56;;;;;;;9.68;2.65;;;;;;;17.01;48.37;100180.44;4994306;28;20426;-59
2022/06/13 01:17:01;;;;;;;12.85;3.20;;;;;;;17.02;48.72;100178.66;4994432;28;20054;-56
2022/06/13 01:19:40;;;;;;;8.30;2.72;;;;;;;17.06;48.79;100177.47;4980549;28;20065;-59
2022/06/13 01:22:50;;;;;;;7.35;2.65;;;;;;;17.04;48.09;100187.34;4977045;28;20465;-58
2022/06/13 01:25:25;;;;;;;7.75;2.25;;;;;;;17.06;48.64;100175.69;4994086;28;20054;-59
2022/06/13 01:28:16;;;;;;;9.40;2.80;;;;;;;17.08;48.54;100174.69;4994435;28;20350;-58
2022/06/13 01:30:58;;;;;;;5.85;2.45;;;;;;;17.09;48.30;100168.41;4993812;28;20062;-55
2022/06/13 01:33:37;;;;;;;6.67;2.30;;;;;;;17.07;48.23;100163.19;4993936;28;20494;-57
2022/06/13 01:36:11;;;;;;;8.35;2.67;;;;;;;17.09;48.17;100169.25;4994026;28;20058;-57
2022/06/13 01:38:46;;;;;;;7.95;2.63;;;;;;;17.08;47.98;100156.09;4976517;28;20120;-57
2022/06/13 01:41:13;;;;;;;6.25;2.65;;;;;;;17.05;47.86;100158.00;4976686;28;20146;-59
2022/06/13 01:44:07;;;;;;;6.50;3.15;;;;;;;17.00;48.21;100156.63;4993880;28;20065;-57
2022/06/13 01:46:52;;;;;;;7.82;2.65;;;;;;;16.95;48.23;100149.03;4994072;28;20505;-53
2022/06/13 01:49:52;;;;;;;6.15;2.45;;;;;;;16.91;48.36;100150.22;4976221;28;20425;-58
2022/06/13 01:52:44;;;;;;;7.00;2.50;;;;;;;16.86;48.17;100152.41;4993853;28;20053;-57
2022/06/13 01:55:29;;;;;;;8.27;2.27;;;;;;;16.81;48.11;100155.41;4993805;28;20064;-59
2022/06/13 01:58:11;;;;;;;6.88;2.38;;;;;;;16.78;48.74;100160.94;4993713;28;20406;-53
2022/06/13 02:00:42;;;;;;;8.57;2.63;;;;;;;16.75;48.68;100162.03;4976328;28;20085;-56
2022/06/13 02:03:27;;;;;;;7.00;2.47;;;;;;;16.71;48.97;100157.91;4993686;28;20105;-59
2022/06/13 02:06:14;;;;;;;7.45;2.15;;;;;;;16.70;48.85;100158.06;4993372;28;20057;-58
2022/06/13 02:08:46;;;;;;;8.23;2.60;;;;;;;16.72;48.97;100158.78;4993408;28;20053;-56
2022/06/13 02:11:22;;;;;;;6.70;2.45;;;;;;;16.73;49.34;100157.81;4993242;28;20061;-56
2022/06/13 02:13:58;;;;;;;6.20;2.58;;;;;;;16.73;49.51;100161.31;4976248;28;20113;-55
2022/06/13 02:16:32;;;;;;;6.60;2.67;;;;;;;16.76;49.41;100166.41;4975858;28;20051;-55
2022/06/13 02:19:08;;;;;;;11.02;3.13;;;;;;;16.78;49.95;100172.44;4993031;28;20069;-56
2022/06/13 02:21:46;;;;;;;9.95;2.90;;;;;;;16.80;49.93;100198.91;4975851;28;20054;-58
2022/06/13 02:24:17;;;;;;;6.80;2.85;;;;;;;16.86;50.00;100210.91;4993276;28;20069;-56
2022/06/13 02:26:48;;;;;;;11.77;3.83;;;;;;;16.86;50.66;100206.41;4993217;28;20061;-59
2022/06/13 02:29:26;;;;;;;9.20;3.33;;;;;;;16.84;51.51;100208.34;4975637;28;20058;-59
2022/06/13 02:32:05;;;;;;;9.35;2.63;;;;;;;16.79;51.26;100206.03;4992966;28;20042;-59
2022/06/13 02:34:36;;;;;;;10.48;2.78;;;;;;;16.77;51.18;100218.59;4993374;28;20107;-58
2022/06/13 02:37:13;;;;;;;6.93;2.80;;;;;;;16.71;51.94;100215.56;4975626;28;20049;-55
2022/06/13 02:39:49;;;;;;;6.10;2.80;;;;;;;16.65;52.13;100209.75;4975617;28;20052;-57
2022/06/13 02:42:27;;;;;;;6.07;2.97;;;;;;;16.55;52.47;100203.41;4975513;28;20050;-58
2022/06/13 02:45:03;;;;;;;7.70;3.03;;;;;;;16.49;52.82;100204.72;4975580;28;20410;-59
2022/06/13 02:47:48;;;;;;;5.97;3.22;;;;;;;16.41;52.95;100205.31;4975482;28;20076;-59
2022/06/13 02:50:19;;;;;;;7.00;2.83;;;;;;;16.40;52.87;100184.16;4974553;28;20062;-57
2022/06/13 02:52:59;;;;;;;9.70;3.20;;;;;;;16.34;53.74;100168.69;4975336;28;20061;-62
2022/06/13 02:55:26;;;;;;;6.22;2.40;;;;;;;16.35;52.58;100171.25;4992665;28;20062;-59
2022/06/13 02:58:12;;;;;;;9.95;3.65;;;;;;;16.28;54.11;100164.69;4975229;28;20057;-57
2022/06/13 03:00:57;;;;;;;9.38;3.13;;;;;;;16.26;52.78;100151.50;4992324;28;20495;-59
2022/06/13 03:03:45;;;;;;;9.25;3.70;;;;;;;16.17;54.04;100146.88;4992165;28;20050;-56
2022/06/13 03:06:30;;;;;;;9.73;2.88;;;;;;;16.07;54.04;100138.75;4992212;28;20051;-55
2022/06/13 03:09:08;;;;;;;7.30;2.80;;;;;;;15.99;54.35;100141.97;4974833;28;20062;-62
2022/06/13 03:11:44;;;;;;;7.90;3.05;;;;;;;15.95;54.14;100139.66;4974675;28;20061;-58
2022/06/13 03:14:40;;;;;;;8.27;3.08;;;;;;;15.85;54.49;100137.66;4992335;28;20491;-59
2022/06/13 03:17:44;;;;;;;7.03;2.85;;;;;;;15.80;54.54;100138.94;4991960;28;20050;-59
2022/06/13 03:20:49;;;;;;;5.90;2.88;;;;;;;15.74;54.78;100141.09;4991620;28;20142;-59
2022/06/13 03:23:31;;;;;;;8.32;3.20;;;;;;;15.71;54.82;100146.66;4991974;28;20116;-56
2022/06/13 03:26:06;;;;;;;6.95;2.75;;;;;;;15.69;55.17;100151.19;4992085;28;20069;-58
2022/06/13 03:28:56;;;;;;;7.93;2.83;;;;;;;15.64;55.42;100151.50;4974553;28;20049;-58
2022/06/13 03:31:36;;;;;;;8.57;3.33;;;;;;;15.67;55.71;100160.22;4974663;28;20438;-57
2022/06/13 03:34:08;;;;;;;8.52;3.00;;;;;;;15.68;55.32;100157.47;4974477;28;20125;-58
2022/06/13 03:36:42;;;;;;;6.10;2.42;;;;;;;15.70;55.53;100162.66;4991616;28;20056;-58
2022/06/13 03:39:27;;;;;;;4.35;2.20;;;;;;;15.72;55.33;100166.91;4974373;28;20057;-60
2022/06/13 03:42:02;;;;;;;6.32;2.45;;;;;;;15.75;55.21;100153.38;4991841;28;20054;-55
2022/06/13 03:44:31;;;;;;;8.88;2.55;;;;;;;15.79;54.91;100158.50;4974261;28;20046;-58
2022/06/13 03:47:01;;;;;;;6.63;1.73;;;;;;;15.82;54.92;100163.56;4991494;28;20049;-57
2022/06/13 03:49:42;;;;;;;6.00;2.13;;;;;;;15.83;55.36;100159.97;4991464;28;20066;-59
2022/06/13 03:52:12;;;;;;;5.90;2.30;;;;;;;15.89;55.13;100170.16;4991640;28;20057;-57
2022/06/13 03:54:50;;;;;;;5.53;2.03;;;;;;;15.92;54.49;100167.25;4974378;28;20050;-56
2022/06/13 03:57:22;;;;;;;4.75;1.85;;;;;;;15.94;54.97;100165.38;4991483;28;20064;-58
2022/06/13 03:59:58;;;;;;;4.65;1.90;;;;;;;15.97;54.05;100169.59;4991068;28;20077;-58
2022/06/13 04:02:28;;;;;;;6.93;2.22;;;;;;;15.97;54.48;100170.47;4990806;28;20054;-58
2022/06/13 04:04:55;;;;;;;8.43;2.70;;;;;;;15.97;54.26;100173.13;4974069;28;20054;-56
2022/06/13 04:07:27;;;;;;;7.75;2.70;;;;;;;15.95;54.70;100174.16;4973967;28;20054;-58
2022/06/13 04:10:00;;;;;;;2.97;2.10;;;;;;;15.91;55.06;100170.88;4973726;28;20069;-58
2022/06/13 04:12:57;;;;;;;6.22;1.88;;;;;;;15.85;55.32;100180.13;4973863;28;20050;-59
2022/06/13 04:15:27;;;;;;;5.03;2.22;;;;;;;15.85;55.12;100179.28;4973717;28;20589;-53
2022/06/13 04:18:23;;;;;;;3.88;1.80;;;;;;;15.80;55.23;100181.41;4991171;28;20141;-57
2022/06/13 04:21:03;;;;;;;4.70;1.65;;;;;;;15.81;55.40;100177.81;4991109;28;20058;-59
2022/06/13 04:23:40;;;;;;;6.43;2.30;;;;;;;15.83;55.66;100171.44;4991095;28;20573;-55
2022/06/13 04:26:45;;;;;;;5.22;2.00;;;;;;;15.85;55.33;100184.59;4991217;28;20457;-55
2022/06/13 04:29:39;;;;;;;4.53;1.90;;;;;;;15.91;55.38;100181.50;4911355;29;20076;-54
2022/06/13 04:32:12;;;;;;;6.22;2.00;;;;;;;15.99;55.57;100188.91;4991288;28;20549;-52
2022/06/13 04:34:45;;;;;;;4.25;1.73;;;;;;;16.02;55.36;100181.59;4973775;28;20513;-51
2022/06/13 04:37:13;;;;;;;8.00;1.98;;;;;;;16.10;54.48;100183.69;4973633;28;20047;-52
2022/06/13 04:39:42;;;;;;;4.43;2.15;;;;;;;16.14;54.51;100185.16;4990604;28;20058;-54
2022/06/13 04:42:09;;;;;;;5.65;2.38;;;;;;;16.19;54.66;100187.47;4973586;28;20491;-57
2022/06/13 04:44:39;;;;;;;3.22;1.73;;;;;;;16.22;54.40;100189.06;4990811;28;20046;-59
2022/06/13 04:47:07;;;;;;;6.53;2.38;;;;;;;16.25;54.67;100186.16;4973649;28;20050;-53
2022/06/13 04:49:40;;;;;;;5.68;2.20;;;;;;;16.26;54.43;100186.03;4990568;28;20069;-52
2022/06/13 04:52:13;;;;;;;6.10;1.85;;;;;;;16.28;54.19;100181.47;4973787;28;20105;-55
2022/06/13 04:54:44;;;;;;;7.82;2.17;;;;;;;16.32;54.39;100182.09;4990680;28;20057;-51
2022/06/13 04:57:13;;;;;;;5.75;2.08;;;;;;;16.33;54.42;100181.13;4973729;28;20748;-53
2022/06/13 04:59:42;;;;;;;4.68;2.30;;;;;;;16.34;54.25;100185.47;4990502;28;20400;-54
2022/06/13 05:02:13;;;;;;;3.20;1.75;;;;;;;16.36;54.46;100188.00;4973488;28;20058;-51
2022/06/13 05:04:40;;;;;;;6.47;2.33;;;;;;;16.39;53.91;100187.78;4990989;28;20047;-57
2022/06/13 05:07:19;;;;;;;4.35;2.15;;;;;;;16.37;54.64;100182.59;4990925;28;20055;-60
2022/06/13 05:09:51;;;;;;;2.90;1.80;;;;;;;16.42;54.45;100182.25;4973230;28;20070;-59
2022/06/13 05:12:24;;;;;;;5.88;2.50;;;;;;;16.47;54.77;100187.19;4990864;28;20050;-54
2022/06/13 05:15:01;;;;;;;3.30;1.88;;;;;;;16.50;54.69;100195.81;4994144;28;20050;-54
2022/06/13 05:17:50;;;;;;;6.55;2.53;;;;;;;16.49;54.88;100183.47;4994251;28;20050;-56
2022/06/13 05:20:41;;;;;;;6.47;3.15;;;;;;;16.52;54.61;100185.91;4994005;28;20050;-57
2022/06/13 05:23:42;;;;;;;7.43;2.60;;;;;;;16.54;54.58;100188.44;4976871;28;20484;-56
2022/06/13 05:26:09;;;;;;;8.38;3.17;;;;;;;16.60;54.19;100190.63;4993866;28;20066;-50
2022/06/13 05:28:36;;;;;;;6.00;2.88;;;;;;;16.61;54.36;100196.81;4993935;28;20442;-55
2022/06/13 05:31:09;;;;;;;8.25;2.75;;;;;;;16.62;54.89;100201.16;4993833;28;20047;-59
2022/06/13 05:33:41;;;;;;;6.40;2.85;;;;;;;16.64;55.13;100197.41;4993887;28;20054;-60
2022/06/13 05:36:13;;;;;;;7.43;2.88;;;;;;;16.67;54.76;100207.81;4993805;28;20057;-57
2022/06/13 05:38:50;;;;;;;5.85;2.78;;;;;;;16.68;54.94;100206.84;4976507;28;20051;-59
2022/06/13 05:41:17;;;;;;;7.72;2.67;;;;;;;16.73;54.64;100203.84;4976461;28;20499;-57
2022/06/13 05:43:44;;;;;;;7.80;2.67;;;;;;;16.78;54.75;100204.34;4976468;28;20108;-57
2022/06/13 05:46:16;;;;;;;7.15;3.00;;;;;;;16.81;55.57;100208.56;4993627;28;20513;-56
2022/06/13 05:48:43;;;;;;;9.18;3.15;;;;;;;16.89;54.85;100207.97;4993837;28;20062;-52
2022/06/13 05:51:10;;;;;;;7.18;2.88;;;;;;;16.95;54.75;100204.88;4976500;28;20062;-57
2022/06/13 05:53:37;;;;;;;7.78;3.20;;;;;;;17.00;54.33;100208.00;4993615;28;20142;-58
2022/06/13 05:56:03;;;;;;;4.93;2.60;;;;;;;17.04;54.40;100209.50;4993425;28;20050;-55
2022/06/13 05:58:30;;;;;;;9.15;3.22;;;;;;;17.08;54.01;100214.59;4993234;28;20124;-56
2022/06/13 06:00:59;;;;;;;10.55;4.00;;;;;;;17.10;54.51;100224.16;4993628;28;20058;-59
2022/06/13 06:03:26;;;;;;;6.15;2.80;;;;;;;17.11;54.36;100219.66;4993377;28;20058;-60
2022/06/13 06:05:54;;;;;;;6.15;3.10;;;;;;;17.13;54.89;100221.25;4993207;28;20051;-57
2022/06/13 06:08:27;;;;;;;6.88;3.20;;;;;;;17.15;54.96;100214.00;4992798;28;20061;-58
2022/06/13 06:10:56;;;;;;;7.68;3.50;;;;;;;17.20;54.40;100224.28;4993259;28;20058;-54
2022/06/13 06:13:24;;;;;;;6.97;3.47;;;;;;;17.23;54.52;100229.34;4993143;28;20051;-58
2022/06/13 06:15:51;;;;;;;6.80;3.28;;;;;;;17.25;54.71;100224.78;4993213;28;20085;-60
2022/06/13 06:18:19;;;;;;;8.95;3.45;;;;;;;17.29;54.81;100222.72;4992986;28;20065;-54
2022/06/13 06:20:46;;;;;;;10.07;3.72;;;;;;;17.32;54.80;100235.78;4993057;28;20494;-55
2022/06/13 06:23:13;;;;;;;10.43;4.03;;;;;;;17.35;54.93;100234.69;4992971;28;20447;-57
2022/06/13 06:25:40;;;;;;;8.07;3.88;;;;;;;17.35;54.81;100224.03;4991932;28;20054;-56
2022/06/13 06:28:09;;;;;;;8.18;3.90;;;;;;;17.38;55.07;100226.47;4975421;28;20050;-57
2022/06/13 06:30:37;;;;;;;13.77;4.30;;;;;;;17.41;55.52;100231.53;4975618;28;20054;-53
2022/06/13 06:33:03;;;;;;;14.07;4.22;;;;;;;17.45;55.83;100231.19;4992813;28;20068;-60
2022/06/13 06:35:33;;;;;;;11.48;4.65;;;;;;;17.50;56.47;100236.16;4975556;28;20051;-57
2022/06/13 06:38:04;;;;;;;9.98;4.28;;;;;;;17.56;56.16;100235.66;4975728;28;20089;-62
2022/06/13 06:40:31;;;;;;;15.68;5.10;;;;;;;17.64;56.13;100244.88;4992808;28;20057;-59
2022/06/13 06:42:57;;;;;;;12.77;5.22;;;;;;;17.71;56.13;100243.38;4992577;28;20503;-59
2022/06/13 06:45:26;;;;;;;11.35;5.38;;;;;;;17.78;56.42;100247.28;4975278;28;20097;-55
2022/06/13 06:47:54;;;;;;;10.75;5.18;;;;;;;17.84;56.25;100243.28;4991671;28;20046;-57
2022/06/13 06:50:27;;;;;;;11.07;5.05;;;;;;;17.91;56.57;100243.63;4974234;28;20053;-58
2022/06/13 06:52:54;;;;;;;11.48;5.30;;;;;;;17.95;56.30;100240.56;4991804;28;20100;-58
2022/06/13 07:01:01;;;;;;;12.10;4.85;;;;;;;18.13;56.11;100236.59;4992036;28;20100;-59
2022/06/13 07:03:28;;;;;;;11.02;4.85;;;;;;;18.19;55.97;100238.75;4992080;28;20417;-57
2022/06/13 07:05:55;;;;;;;9.38;4.85;;;;;;;18.26;56.52;100242.63;4992455;28;20124;-53
2022/06/13 07:08:21;;;;;;;16.13;5.70;;;;;;;18.31;56.04;100235.06;4992090;28;20054;-60
2022/06/13 07:10:49;;;;;;;12.93;4.85;;;;;;;18.39;56.15;100252.28;4992334;28;20054;-58
2022/06/13 07:13:18;;;;;;;9.27;4.97;;;;;;;18.45;56.30;100247.28;4992088;28;20061;-55
2022/06/13 07:15:48;;;;;;;13.68;5.22;;;;;;;18.51;55.96;100247.72;4992204;28;20108;-56
2022/06/13 07:18:16;;;;;;;11.60;4.60;;;;;;;18.59;55.64;100248.81;4992168;28;20050;-58
2022/06/13 07:20:44;;;;;;;10.95;5.20;;;;;;;18.67;55.81;100247.28;4974765;28;20402;-56
2022/06/13 07:23:10;;;;;;;12.23;5.00;;;;;;;18.74;55.23;100249.34;4974751;28;20490;-60
2022/06/13 07:25:37;;;;;;;11.38;4.47;;;;;;;18.81;54.82;100249.66;4991749;28;20050;-59
2022/06/13 07:28:04;;;;;;;10.27;4.30;;;;;;;18.84;54.76;100248.56;4991761;28;20051;-59
2022/06/13 07:30:31;;;;;;;14.80;4.63;;;;;;;18.86;55.00;100260.78;4991936;28;20054;-59
2022/06/13 07:32:58;;;;;;;8.23;3.95;;;;;;;18.89;54.63;100247.19;4991856;28;20085;-57
2022/06/13 07:35:25;;;;;;;8.85;3.67;;;;;;;18.94;54.66;100249.47;4991733;28;20058;-56
2022/06/13 07:40:37;;;;;;;11.02;4.38;;;;;;;19.01;54.72;100247.97;4991761;28;20156;-56
2022/06/13 07:43:06;;;;;;;10.95;3.97;;;;;;;19.05;54.12;100255.69;4991752;28;20057;-59
2022/06/13 07:45:40;;;;;;;8.52;3.22;;;;;;;19.07;53.70;100246.66;4991727;28;20058;-60
2022/06/13 07:48:19;;;;;;;8.95;3.55;;;;;;;19.18;53.63;100258.22;4991494;28;20087;-59
2022/06/13 07:50:46;;;;;;;5.65;2.78;;;;;;;19.23;53.46;100256.00;4974138;28;20050;-59
2022/06/13 07:53:12;;;;;;;12.52;3.72;;;;;;;19.28;53.15;100261.78;4991784;28;20093;-59
2022/06/13 07:55:39;;;;;;;9.20;3.33;;;;;;;19.32;53.02;100257.88;4991477;28;20058;-58
2022/06/13 07:58:13;;;;;;;6.03;2.72;;;;;;;19.36;52.86;100258.47;4991320;28;20061;-59
2022/06/13 08:00:39;;;;;;;8.38;3.50;;;;;;;19.43;53.42;100256.09;4974019;28;20505;-59
2022/06/13 08:03:06;;;;;;;5.95;2.80;;;;;;;19.50;53.42;100259.91;4991382;28;20094;-59
2022/06/13 08:05:32;;;;;;;8.15;3.63;;;;;;;19.59;53.02;100261.78;4991227;28;20046;-59
2022/06/13 08:07:59;;;;;;;10.43;3.53;;;;;;;19.69;52.79;100258.31;4991661;28;20054;-61
2022/06/13 08:10:26;;;;;;;6.72;3.35;;;;;;;19.79;52.91;100251.19;4991248;28;20271;-59
2022/06/13 08:12:53;;;;;;;6.72;3.03;;;;;;;19.89;52.04;100262.72;4991345;28;20565;-57
2022/06/13 08:15:22;;;;;;;7.30;2.92;;;;;;;19.99;51.69;100253.94;4991267;28;20490;-60
2022/06/13 08:17:49;;;;;;;7.55;2.85;;;;;;;20.03;51.01;100253.53;4991102;28;20042;-58
2022/06/13 08:20:15;;;;;;;7.72;2.78;;;;;;;20.07;50.96;100251.41;4990745;28;20050;-59
2022/06/13 08:22:46;;;;;;;9.20;3.35;;;;;;;20.08;50.38;100253.13;4990974;28;20050;-59
2022/06/13 08:25:22;;;;;;;6.97;2.63;;;;;;;20.07;50.43;100250.59;4991331;28;20403;-59
2022/06/13 08:27:49;;;;;;;10.07;3.08;;;;;;;20.10;50.37;100259.16;4991230;28;20073;-59
2022/06/13 08:30:16;;;;;;;10.93;3.40;;;;;;;20.13;50.52;100258.03;4990853;28;20499;-61
2022/06/13 08:32:43;;;;;;;10.00;3.75;;;;;;;20.18;50.50;100255.78;4991031;28;20088;-58
2022/06/13 08:35:10;;;;;;;7.95;3.17;;;;;;;20.24;50.31;100262.44;4991280;28;20050;-57
2022/06/13 08:37:37;;;;;;;11.25;3.22;;;;;;;20.30;51.08;100265.38;4973693;28;20050;-60
2022/06/13 08:40:05;;;;;;;8.45;3.25;;;;;;;20.38;49.88;100271.88;4990824;28;20100;-60
2022/06/13 08:42:38;;;;;;;5.43;2.75;;;;;;;20.46;49.68;100256.00;4973685;28;20191;-59
2022/06/13 08:45:12;;;;;;;6.40;2.90;;;;;;;20.57;49.52;100265.69;4990959;28;20453;-56
2022/06/13 08:47:46;;;;;;;4.70;2.58;;;;;;;20.65;49.67;100265.00;4991217;28;20046;-56
2022/06/13 08:50:38;;;;;;;8.13;2.80;;;;;;;20.73;48.60;100264.28;4977214;28;20054;-57
2022/06/13 08:53:15;;;;;;;6.25;2.53;;;;;;;20.86;48.83;100264.00;4994816;28;20046;-56
2022/06/13 08:55:47;;;;;;;7.82;2.65;;;;;;;20.93;48.53;100270.50;4977606;28;20058;-59
2022/06/13 08:58:40;;;;;;;6.03;2.80;;;;;;;20.93;48.27;100273.19;4977314;28;20046;-59
2022/06/13 09:01:14;;;;;;;4.00;2.37;;;;;;;21.01;47.95;100283.16;4984276;28;20124;-59
2022/06/13 09:03:51;;;;;;;5.63;2.00;;;;;;;20.98;46.94;100278.09;4994463;28;20061;-59
2022/06/13 09:06:39;;;;;;;6.05;2.22;;;;;;;20.95;47.10;100293.47;4994724;28;20113;-59
2022/06/13 09:09:18;;;;;;;5.07;1.75;;;;;;;20.92;46.08;100296.41;4994115;28;20534;-56
2022/06/13 09:12:08;;;;;;;6.50;1.85;;;;;;;20.88;46.04;100331.63;4994549;28;20151;-61
2022/06/13 09:14:43;;;;;;;2.55;1.23;;;;;;;20.72;45.97;100329.47;4994430;28;20494;-57
2022/06/13 09:17:21;;;;;;;1.92;0.88;;;;;;;20.49;46.42;100332.41;4994436;28;20078;-58
2022/06/13 09:20:06;;;;;;;4.18;1.30;;;;;;;20.18;46.83;100331.50;4976810;28;20054;-59
2022/06/13 09:22:43;;;;;;;2.00;0.90;;;;;;;19.75;48.27;100329.91;4994203;28;20113;-59
2022/06/13 09:25:47;;;;;;;2.13;0.70;;;;;;;19.37;49.30;100333.06;4976952;28;20060;-58
2022/06/13 09:28:50;;;;;;;2.35;1.00;;;;;;;19.06;50.14;100343.66;4993953;28;20046;-59
2022/06/13 09:31:28;;;;;;;1.92;0.70;;;;;;;18.89;49.98;100347.72;4952723;28;20062;-59
2022/06/13 09:34:33;;;;;;;2.22;0.93;;;;;;;18.68;50.33;100351.16;4993860;28;20574;-59
2022/06/13 09:37:05;;;;;;;0.93;0.63;;;;;;;18.57;50.55;100351.19;4970229;28;20046;-59
2022/06/13 09:39:32;;;;;;;1.73;1.00;;;;;;;18.47;50.79;100353.78;4993627;28;20053;-57
2022/06/13 09:42:29;;;;;;;2.38;0.80;;;;;;;18.32;51.20;100359.34;4994085;28;20101;-59
2022/06/13 09:44:58;;;;;;;2.55;0.80;;;;;;;18.30;51.50;100353.31;4993838;28;20097;-57
2022/06/13 09:47:38;;;;;;;1.92;0.77;;;;;;;18.30;51.47;100355.13;4993815;28;20046;-62
2022/06/13 09:50:19;;;;;;;2.60;1.00;;;;;;;18.26;52.26;100349.19;4993641;28;20073;-60
2022/06/13 09:53:01;;;;;;;2.97;0.82;;;;;;;18.33;51.85;100350.41;4993719;28;20101;-59
2022/06/13 09:55:33;;;;;;;0.88;0.77;;;;;;;18.39;51.80;100340.22;4993754;28;20054;-59
2022/06/13 09:58:27;;;;;;;2.97;0.90;;;;;;;18.43;53.20;100341.66;4993459;28;20078;-60
2022/06/13 10:01:08;;;;;;;1.30;1.00;;;;;;;18.56;53.87;100339.69;4993247;28;20403;-55
2022/06/13 10:04:17;;;;;;;3.33;1.10;;;;;;;18.70;53.57;100335.03;4993359;28;20050;-59
2022/06/13 10:06:54;;;;;;;3.72;1.02;;;;;;;18.91;54.91;100339.59;4993885;28;20062;-58
2022/06/13 10:09:45;;;;;;;2.92;1.00;;;;;;;19.13;53.70;100331.50;4975874;28;20046;-60
2022/06/13 10:12:37;;;;;;;3.05;1.08;;;;;;;19.34;53.20;100348.50;4993257;28;20093;-58
2022/06/13 10:15:26;;;;;;;7.50;1.50;;;;;;;19.56;53.09;100342.19;4993099;28;20498;-59
2022/06/13 10:17:59;;;;;;;5.65;1.63;;;;;;;19.81;53.59;100347.22;4976057;28;20042;-59
2022/06/13 10:20:41;;;;;;;3.05;1.27;;;;;;;19.98;52.22;100345.72;4993066;28;20056;-59
2022/06/13 10:23:40;;;;;;;3.72;1.50;;;;;;;20.20;51.92;100341.19;4993018;28;20128;-60
2022/06/13 10:26:33;;;;;;;3.17;1.13;;;;;;;20.44;52.21;100349.72;4993398;28;20057;-59
2022/06/13 10:29:16;;;;;;;3.22;1.40;;;;;;;20.66;51.55;100354.94;4975622;28;20796;-58
2022/06/13 10:31:43;;;;;;;4.93;1.40;;;;;;;20.86;51.43;100347.78;4975480;28;20495;-59
2022/06/13 10:34:27;;;;;;;6.07;1.40;;;;;;;20.93;50.23;100340.91;4993082;28;20085;-57
2022/06/13 10:37:06;;;;;;;1.80;0.80;;;;;;;20.99;47.85;100389.50;4992936;28;20463;-59
2022/06/13 10:39:32;;;;;;;1.58;0.52;;;;;;;20.94;47.17;100389.94;4992500;28;20050;-60
2022/06/13 10:42:08;;;;;;;0.70;0.68;;;;;;;20.69;46.28;100390.31;4992838;28;20458;-59
2022/06/13 10:44:36;;;;;;;1.05;0.60;;;;;;;20.49;46.46;100391.25;4992740;28;20474;-61
2022/06/13 10:47:27;;;;;;;1.52;0.60;;;;;;;20.11;47.06;100386.47;4975429;28;20051;-60
2022/06/13 10:50:02;;;;;;;0.65;0.43;;;;;;;19.86;47.28;100374.38;4975024;28;20050;-60
2022/06/13 10:52:37;;;;;;;1.17;0.50;;;;;;;19.58;47.82;100374.91;4992749;28;20051;-60
2022/06/13 10:55:08;;;;;;;0.47;0.25;;;;;;;19.36;48.25;100374.06;4992666;28;20050;-59
2022/06/13 10:57:42;;;;;;;0.77;0.52;;;;;;;19.15;48.84;100366.06;4992350;28;20054;-61
2022/06/13 11:00:15;;;;;;;2.25;0.43;;;;;;;19.01;48.68;100372.50;4974757;28;20054;-61
2022/06/13 11:02:41;;;;;;;2.40;0.60;;;;;;;18.91;49.22;100363.59;4974998;28;20050;-59
2022/06/13 11:05:16;;;;;;;1.70;0.57;;;;;;;18.82;49.68;100371.38;4992327;28;20061;-60
2022/06/13 11:07:53;;;;;;;1.13;0.50;;;;;;;18.78;50.09;100369.06;4992346;28;20568;-58
2022/06/13 11:10:34;;;;;;;2.20;0.75;;;;;;;18.77;49.89;100368.25;4991910;28;20058;-58
2022/06/13 11:13:03;;;;;;;0.98;0.55;;;;;;;18.83;49.93;100367.72;4992228;28;20050;-59
2022/06/13 11:24:30;;;;;;;2.60;1.00;;;;;;;19.64;51.42;100369.06;4992157;28;20047;-61
2022/06/13 11:29:42;;;;;;;3.28;0.80;;;;;;;20.54;52.32;100367.59;4991468;28;20082;-60
2022/06/13 11:32:22;;;;;;;2.58;0.80;;;;;;;21.10;51.43;100367.97;4991834;28;20101;-60
2022/06/13 11:34:48;;;;;;;2.47;1.30;;;;;;;21.76;51.69;100372.69;4991840;28;20054;-59
2022/06/13 11:37:17;;;;;;;4.05;0.73;;;;;;;22.38;50.79;100364.91;4991604;28;20046;-60
2022/06/13 11:39:46;;;;;;;4.00;0.88;;;;;;;23.01;50.22;100366.91;4991376;28;20061;-60
2022/06/13 11:42:26;;;;;;;2.70;0.90;;;;;;;23.65;47.18;100366.75;4991455;28;20051;-59
2022/06/13 11:45:17;;;;;;;2.65;1.00;;;;;;;24.31;46.96;100362.72;4991669;28;20137;-61
2022/06/13 11:47:49;;;;;;;1.58;0.98;;;;;;;24.87;44.29;100359.50;4991657;28;20105;-60
2022/06/13 11:50:23;;;;;;;3.95;0.70;;;;;;;25.33;43.36;100364.38;4991172;28;20057;-60
2022/06/13 11:55:54;;;;;;;3.85;1.17;;;;;;;26.22;42.30;100365.34;4991647;28;20050;-60
2022/06/13 11:58:25;;;;;;;2.50;1.00;;;;;;;26.60;43.20;100361.97;4974065;28;20057;-60
2022/06/13 12:00:54;;;;;;;3.78;0.80;;;;;;;26.87;41.64;100361.63;4991335;28;20054;-60
2022/06/13 12:03:24;;;;;;;2.58;0.80;;;;;;;26.99;38.70;100370.16;4974269;28;20565;-60
2022/06/13 12:05:56;;;;;;;2.13;0.80;;;;;;;26.84;37.26;100362.81;4991414;28;20058;-60
2022/06/13 12:08:32;;;;;;;1.50;0.70;;;;;;;26.52;37.31;100362.00;4991128;28;20942;-60
2022/06/13 12:11:19;;;;;;;2.28;0.98;;;;;;;26.14;37.30;100363.53;4991293;28;20658;-60
2022/06/13 12:13:47;;;;;;;2.15;0.68;;;;;;;25.67;37.13;100367.06;4991503;28;20089;-59
2022/06/13 12:16:22;;;;;;;2.35;0.68;;;;;;;25.21;37.45;100363.88;4974079;28;20438;-59
2022/06/13 12:18:59;;;;;;;3.67;0.95;;;;;;;24.82;37.85;100365.34;4990717;28;20100;-60
2022/06/13 12:21:36;;;;;;;3.75;0.80;;;;;;;24.47;38.46;100364.59;4973974;28;20054;-60
2022/06/13 12:24:26;;;;;;;3.00;0.93;;;;;;;24.28;38.92;100361.19;4993641;28;20108;-59
2022/06/13 12:27:11;;;;;;;3.47;0.85;;;;;;;24.37;39.05;100361.22;4995519;28;20222;-60